New Athens, Ohio
Current Conditions -  °F | °C
As of 6:53 PM on Thursday 27 Nov 2014 (Local Time) from KHLG Reporting Station
Light Snow Light Snow  
Wind Chill: 19°   Ceiling: 5500
Heat Index: 29°   Visibility: 5mi
Dew Point: 24°   Wind: 12mph
Humidity: 82%   Direction: 260°W
Pressure: 30.21"   Gusts: NA
Location:  40.18°N, 81°W
Report Text: KHLG 272353Z 26010KT 5SM -SN SCT015 SCT030 OVC055 M02/M04 A3021 RMK AO2 SNB52 SLP244 P0000 60001 T10171044 10006 21017 53020
Loading
Personal Weather Stations






























Interactive Weather Map New forecast layout! Learn more

10-Day Weather Forecast

Advertisements
Track Severe Weather on mobile